sensor_id;sensor_type;location;lat;lon;timestamp;temperature;humidity
51839;DHT22;37886;53.174;6.368;2023-08-01T00:00:31;17.00;99.90
51839;DHT22;37886;53.174;6.368;2023-08-01T00:02:57;17.00;99.90
51839;DHT22;37886;53.174;6.368;2023-08-01T00:05:23;17.00;99.90
51839;DHT22;37886;53.174;6.368;2023-08-01T00:07:49;16.90;99.90
51839;DHT22;37886;53.174;6.368;2023-08-01T00:10:15;16.90;99.90
51839;DHT22;37886;53.174;6.368;2023-08-01T00:12:42;16.80;99.90
51839;DHT22;37886;53.174;6.368;2023-08-01T00:15:08;16.80;99.90
51839;DHT22;37886;53.174;6.368;2023-08-01T00:17:34;16.70;99.90
51839;DHT22;37886;53.174;6.368;2023-08-01T00:20:03;16.70;99.90
51839;DHT22;37886;53.174;6.368;2023-08-01T00:22:30;16.70;99.90
51839;DHT22;37886;53.174;6.368;2023-08-01T00:24:55;16.70;99.90
51839;DHT22;37886;53.174;6.368;2023-08-01T00:27:21;16.60;99.90
51839;DHT22;37886;53.174;6.368;2023-08-01T00:29:47;16.70;99.90
51839;DHT22;37886;53.174;6.368;2023-08-01T00:32:12;16.70;99.90
51839;DHT22;37886;53.174;6.368;2023-08-01T00:34:38;16.60;99.90
51839;DHT22;37886;53.174;6.368;2023-08-01T00:37:04;16.60;99.90
51839;DHT22;37886;53.174;6.368;2023-08-01T00:39:30;16.60;99.90
51839;DHT22;37886;53.174;6.368;2023-08-01T00:41:56;16.60;99.90
51839;DHT22;37886;53.174;6.368;2023-08-01T00:44:22;16.50;99.90
51839;DHT22;37886;53.174;6.368;2023-08-01T00:46:48;16.50;99.90
51839;DHT22;37886;53.174;6.368;2023-08-01T00:49:14;16.50;99.90
51839;DHT22;37886;53.174;6.368;2023-08-01T00:51:41;16.40;99.90
51839;DHT22;37886;53.174;6.368;2023-08-01T00:54:06;16.50;99.90
51839;DHT22;37886;53.174;6.368;2023-08-01T00:56:33;16.40;99.90
51839;DHT22;37886;53.174;6.368;2023-08-01T00:59:00;16.40;99.90
51839;DHT22;37886;53.174;6.368;2023-08-01T01:01:26;16.30;99.90
51839;DHT22;37886;53.174;6.368;2023-08-01T01:03:52;16.30;99.90
51839;DHT22;37886;53.174;6.368;2023-08-01T01:06:37;16.30;99.90
51839;DHT22;37886;53.174;6.368;2023-08-01T01:09:15;16.20;99.90
51839;DHT22;37886;53.174;6.368;2023-08-01T01:11:41;16.20;99.90
51839;DHT22;37886;53.174;6.368;2023-08-01T01:14:06;16.00;99.90
51839;DHT22;37886;53.174;6.368;2023-08-01T01:16:32;16.00;99.90
51839;DHT22;37886;53.174;6.368;2023-08-01T01:18:58;15.90;99.90
51839;DHT22;37886;53.174;6.368;2023-08-01T01:21:23;15.90;99.90
51839;DHT22;37886;53.174;6.368;2023-08-01T01:23:49;16.00;99.90
51839;DHT22;37886;53.174;6.368;2023-08-01T01:26:16;15.90;99.90
51839;DHT22;37886;53.174;6.368;2023-08-01T01:28:49;15.90;99.90
51839;DHT22;37886;53.174;6.368;2023-08-01T01:31:16;15.90;99.90
51839;DHT22;37886;53.174;6.368;2023-08-01T01:33:42;15.80;99.90
51839;DHT22;37886;53.174;6.368;2023-08-01T01:36:08;15.80;99.90
51839;DHT22;37886;53.174;6.368;2023-08-01T01:38:33;15.90;99.90
51839;DHT22;37886;53.174;6.368;2023-08-01T01:40:59;15.80;99.90
51839;DHT22;37886;53.174;6.368;2023-08-01T01:43:25;15.90;99.90
51839;DHT22;37886;53.174;6.368;2023-08-01T01:45:50;15.90;99.90
51839;DHT22;37886;53.174;6.368;2023-08-01T01:48:16;15.90;99.90
51839;DHT22;37886;53.174;6.368;2023-08-01T01:50:42;15.90;99.90
51839;DHT22;37886;53.174;6.368;2023-08-01T01:53:07;15.80;99.90
51839;DHT22;37886;53.174;6.368;2023-08-01T01:55:33;15.80;99.90
51839;DHT22;37886;53.174;6.368;2023-08-01T01:58:00;15.70;99.90
51839;DHT22;37886;53.174;6.368;2023-08-01T02:00:25;15.60;99.90
51839;DHT22;37886;53.174;6.368;2023-08-01T02:02:51;15.50;99.90
51839;DHT22;37886;53.174;6.368;2023-08-01T02:05:17;15.60;99.90
51839;DHT22;37886;53.174;6.368;2023-08-01T02:07:42;15.50;99.90
51839;DHT22;37886;53.174;6.368;2023-08-01T02:10:08;15.40;99.90
51839;DHT22;37886;53.174;6.368;2023-08-01T02:12:34;15.40;99.90
51839;DHT22;37886;53.174;6.368;2023-08-01T02:15:01;15.30;99.90
51839;DHT22;37886;53.174;6.368;2023-08-01T02:17:27;15.30;99.90
51839;DHT22;37886;53.174;6.368;2023-08-01T02:19:52;15.20;99.90
51839;DHT22;37886;53.174;6.368;2023-08-01T02:22:18;15.20;99.90
51839;DHT22;37886;53.174;6.368;2023-08-01T02:24:44;15.30;99.90
51839;DHT22;37886;53.174;6.368;2023-08-01T02:27:10;15.30;99.90
51839;DHT22;37886;53.174;6.368;2023-08-01T02:29:35;15.30;99.90
51839;DHT22;37886;53.174;6.368;2023-08-01T02:32:01;15.20;99.90
51839;DHT22;37886;53.174;6.368;2023-08-01T02:34:27;15.30;99.90
51839;DHT22;37886;53.174;6.368;2023-08-01T02:36:53;15.20;99.90
51839;DHT22;37886;53.174;6.368;2023-08-01T02:39:18;15.30;99.90
51839;DHT22;37886;53.174;6.368;2023-08-01T02:41:44;15.30;99.90
51839;DHT22;37886;53.174;6.368;2023-08-01T02:44:10;15.20;99.90
51839;DHT22;37886;53.174;6.368;2023-08-01T02:46:35;15.20;99.90
51839;DHT22;37886;53.174;6.368;2023-08-01T02:49:01;15.20;99.90
51839;DHT22;37886;53.174;6.368;2023-08-01T02:51:27;15.40;99.90
51839;DHT22;37886;53.174;6.368;2023-08-01T02:53:52;15.40;99.90
51839;DHT22;37886;53.174;6.368;2023-08-01T02:56:18;15.40;99.90
51839;DHT22;37886;53.174;6.368;2023-08-01T02:58:44;15.50;99.90
51839;DHT22;37886;53.174;6.368;2023-08-01T03:01:10;15.60;99.90
51839;DHT22;37886;53.174;6.368;2023-08-01T03:03:36;15.60;99.90
51839;DHT22;37886;53.174;6.368;2023-08-01T03:06:02;15.70;99.90
51839;DHT22;37886;53.174;6.368;2023-08-01T03:08:28;15.60;99.90
51839;DHT22;37886;53.174;6.368;2023-08-01T03:10:54;15.70;99.90
51839;DHT22;37886;53.174;6.368;2023-08-01T03:13:20;15.80;99.90
51839;DHT22;37886;53.174;6.368;2023-08-01T03:15:45;15.80;99.90
51839;DHT22;37886;53.174;6.368;2023-08-01T03:18:11;15.90;99.90
51839;DHT22;37886;53.174;6.368;2023-08-01T03:20:37;15.90;99.90
51839;DHT22;37886;53.174;6.368;2023-08-01T03:23:03;15.90;99.90
51839;DHT22;37886;53.174;6.368;2023-08-01T03:25:29;16.00;99.90
51839;DHT22;37886;53.174;6.368;2023-08-01T03:27:56;15.80;99.90
51839;DHT22;37886;53.174;6.368;2023-08-01T03:30:21;15.90;99.90
51839;DHT22;37886;53.174;6.368;2023-08-01T03:32:47;15.90;99.90
51839;DHT22;37886;53.174;6.368;2023-08-01T03:35:13;15.80;99.90
51839;DHT22;37886;53.174;6.368;2023-08-01T03:37:41;15.90;99.90
51839;DHT22;37886;53.174;6.368;2023-08-01T03:40:07;15.80;99.90
51839;DHT22;37886;53.174;6.368;2023-08-01T03:42:36;16.00;99.90
51839;DHT22;37886;53.174;6.368;2023-08-01T03:45:02;15.90;99.90
51839;DHT22;37886;53.174;6.368;2023-08-01T03:47:28;15.90;99.90
51839;DHT22;37886;53.174;6.368;2023-08-01T03:49:54;15.90;99.90
51839;DHT22;37886;53.174;6.368;2023-08-01T03:52:20;15.70;99.90
51839;DHT22;37886;53.174;6.368;2023-08-01T03:54:45;15.90;99.90
51839;DHT22;37886;53.174;6.368;2023-08-01T03:57:11;15.90;99.90
51839;DHT22;37886;53.174;6.368;2023-08-01T03:59:37;15.90;99.90
51839;DHT22;37886;53.174;6.368;2023-08-01T04:02:03;15.70;99.90
51839;DHT22;37886;53.174;6.368;2023-08-01T04:04:28;15.80;99.90
51839;DHT22;37886;53.174;6.368;2023-08-01T04:06:56;15.80;99.90
51839;DHT22;37886;53.174;6.368;2023-08-01T04:09:22;15.70;99.90
51839;DHT22;37886;53.174;6.368;2023-08-01T04:11:47;15.70;99.90
51839;DHT22;37886;53.174;6.368;2023-08-01T04:14:13;15.80;99.90
51839;DHT22;37886;53.174;6.368;2023-08-01T04:16:39;15.80;99.90
51839;DHT22;37886;53.174;6.368;2023-08-01T04:19:05;15.80;99.90
51839;DHT22;37886;53.174;6.368;2023-08-01T04:21:31;15.70;99.90
51839;DHT22;37886;53.174;6.368;2023-08-01T04:23:56;15.60;99.90
51839;DHT22;37886;53.174;6.368;2023-08-01T04:26:22;15.70;99.90
51839;DHT22;37886;53.174;6.368;2023-08-01T04:28:48;15.70;99.90
51839;DHT22;37886;53.174;6.368;2023-08-01T04:31:14;15.70;99.90
51839;DHT22;37886;53.174;6.368;2023-08-01T04:33:40;15.70;99.90
51839;DHT22;37886;53.174;6.368;2023-08-01T04:36:06;15.50;99.90
51839;DHT22;37886;53.174;6.368;2023-08-01T04:38:31;15.50;99.90
51839;DHT22;37886;53.174;6.368;2023-08-01T04:40:57;15.50;99.90
51839;DHT22;37886;53.174;6.368;2023-08-01T04:43:23;15.50;99.90
51839;DHT22;37886;53.174;6.368;2023-08-01T04:45:48;15.70;99.90
51839;DHT22;37886;53.174;6.368;2023-08-01T04:48:14;15.80;99.90
51839;DHT22;37886;53.174;6.368;2023-08-01T04:50:40;15.80;99.90
51839;DHT22;37886;53.174;6.368;2023-08-01T04:53:05;15.70;99.90
51839;DHT22;37886;53.174;6.368;2023-08-01T04:55:32;15.90;99.90
51839;DHT22;37886;53.174;6.368;2023-08-01T04:57:57;16.20;99.90
51839;DHT22;37886;53.174;6.368;2023-08-01T05:00:23;16.30;99.90
51839;DHT22;37886;53.174;6.368;2023-08-01T05:02:49;16.30;99.90
51839;DHT22;37886;53.174;6.368;2023-08-01T05:05:15;16.30;99.90
51839;DHT22;37886;53.174;6.368;2023-08-01T05:07:41;16.40;99.90
51839;DHT22;37886;53.174;6.368;2023-08-01T05:10:07;16.50;99.90
51839;DHT22;37886;53.174;6.368;2023-08-01T05:12:33;16.30;99.90
51839;DHT22;37886;53.174;6.368;2023-08-01T05:14:59;16.20;99.90
51839;DHT22;37886;53.174;6.368;2023-08-01T05:17:24;16.20;99.90
51839;DHT22;37886;53.174;6.368;2023-08-01T05:19:50;16.10;99.90
51839;DHT22;37886;53.174;6.368;2023-08-01T05:22:16;16.10;99.90
51839;DHT22;37886;53.174;6.368;2023-08-01T05:24:42;16.00;99.90
51839;DHT22;37886;53.174;6.368;2023-08-01T05:27:07;15.90;99.90
51839;DHT22;37886;53.174;6.368;2023-08-01T05:29:33;16.00;99.90
51839;DHT22;37886;53.174;6.368;2023-08-01T05:31:59;16.00;99.90
51839;DHT22;37886;53.174;6.368;2023-08-01T05:34:24;15.90;99.90
51839;DHT22;37886;53.174;6.368;2023-08-01T05:36:50;15.90;99.90
51839;DHT22;37886;53.174;6.368;2023-08-01T05:39:16;15.90;99.90
51839;DHT22;37886;53.174;6.368;2023-08-01T05:41:42;15.90;99.90
51839;DHT22;37886;53.174;6.368;2023-08-01T05:44:08;15.90;99.90
51839;DHT22;37886;53.174;6.368;2023-08-01T05:46:34;16.00;99.90
51839;DHT22;37886;53.174;6.368;2023-08-01T05:48:59;16.10;99.90
51839;DHT22;37886;53.174;6.368;2023-08-01T05:51:25;16.10;99.90
51839;DHT22;37886;53.174;6.368;2023-08-01T05:53:51;16.10;99.90
51839;DHT22;37886;53.174;6.368;2023-08-01T05:56:17;16.20;99.90
51839;DHT22;37886;53.174;6.368;2023-08-01T05:58:42;16.30;99.90
51839;DHT22;37886;53.174;6.368;2023-08-01T06:01:11;16.20;99.90
51839;DHT22;37886;53.174;6.368;2023-08-01T06:03:37;16.20;99.90
51839;DHT22;37886;53.174;6.368;2023-08-01T06:06:03;16.20;99.90
51839;DHT22;37886;53.174;6.368;2023-08-01T06:08:29;16.30;99.90
51839;DHT22;37886;53.174;6.368;2023-08-01T06:10:55;16.20;99.90
51839;DHT22;37886;53.174;6.368;2023-08-01T06:13:21;16.30;99.90
51839;DHT22;37886;53.174;6.368;2023-08-01T06:15:46;16.30;99.90
51839;DHT22;37886;53.174;6.368;2023-08-01T06:18:12;16.10;99.90
51839;DHT22;37886;53.174;6.368;2023-08-01T06:20:38;16.10;99.90
51839;DHT22;37886;53.174;6.368;2023-08-01T06:23:05;16.10;99.90
51839;DHT22;37886;53.174;6.368;2023-08-01T06:25:30;16.10;99.90
51839;DHT22;37886;53.174;6.368;2023-08-01T06:27:56;16.30;99.90
51839;DHT22;37886;53.174;6.368;2023-08-01T06:30:22;16.30;99.90
51839;DHT22;37886;53.174;6.368;2023-08-01T06:32:47;16.10;99.90
51839;DHT22;37886;53.174;6.368;2023-08-01T06:35:13;16.10;99.90
51839;DHT22;37886;53.174;6.368;2023-08-01T06:37:39;16.10;99.90
51839;DHT22;37886;53.174;6.368;2023-08-01T06:40:05;16.20;99.90
51839;DHT22;37886;53.174;6.368;2023-08-01T06:42:31;16.20;99.90
51839;DHT22;37886;53.174;6.368;2023-08-01T06:44:57;16.40;99.90
51839;DHT22;37886;53.174;6.368;2023-08-01T06:47:22;16.60;99.90
51839;DHT22;37886;53.174;6.368;2023-08-01T06:49:48;16.80;99.90
51839;DHT22;37886;53.174;6.368;2023-08-01T06:52:13;16.80;99.90
51839;DHT22;37886;53.174;6.368;2023-08-01T06:54:39;16.90;99.90
51839;DHT22;37886;53.174;6.368;2023-08-01T06:57:06;17.20;99.90
51839;DHT22;37886;53.174;6.368;2023-08-01T06:59:32;17.00;99.90
51839;DHT22;37886;53.174;6.368;2023-08-01T07:01:57;17.00;99.90
51839;DHT22;37886;53.174;6.368;2023-08-01T07:04:23;17.00;99.90
51839;DHT22;37886;53.174;6.368;2023-08-01T07:06:49;17.10;99.90
51839;DHT22;37886;53.174;6.368;2023-08-01T07:09:15;17.00;99.90
51839;DHT22;37886;53.174;6.368;2023-08-01T07:11:40;17.00;99.90
51839;DHT22;37886;53.174;6.368;2023-08-01T07:14:06;16.80;99.90
51839;DHT22;37886;53.174;6.368;2023-08-01T07:16:32;16.70;99.90
51839;DHT22;37886;53.174;6.368;2023-08-01T07:19:00;16.70;99.90
51839;DHT22;37886;53.174;6.368;2023-08-01T07:21:26;16.70;99.90
51839;DHT22;37886;53.174;6.368;2023-08-01T07:23:51;16.60;99.90
51839;DHT22;37886;53.174;6.368;2023-08-01T07:26:17;16.70;99.90
51839;DHT22;37886;53.174;6.368;2023-08-01T07:28:43;16.70;99.90
51839;DHT22;37886;53.174;6.368;2023-08-01T07:31:09;16.70;99.90
51839;DHT22;37886;53.174;6.368;2023-08-01T07:33:35;16.60;99.90
51839;DHT22;37886;53.174;6.368;2023-08-01T07:36:00;16.60;99.90
51839;DHT22;37886;53.174;6.368;2023-08-01T07:38:26;16.60;99.90
51839;DHT22;37886;53.174;6.368;2023-08-01T07:40:53;16.60;99.90
51839;DHT22;37886;53.174;6.368;2023-08-01T07:43:19;16.70;99.90
51839;DHT22;37886;53.174;6.368;2023-08-01T07:45:45;16.80;99.90
51839;DHT22;37886;53.174;6.368;2023-08-01T07:48:11;17.00;99.90
51839;DHT22;37886;53.174;6.368;2023-08-01T07:50:36;17.00;99.90
51839;DHT22;37886;53.174;6.368;2023-08-01T07:53:02;17.00;99.90
51839;DHT22;37886;53.174;6.368;2023-08-01T07:55:28;17.20;99.90
51839;DHT22;37886;53.174;6.368;2023-08-01T07:57:54;17.30;99.90
51839;DHT22;37886;53.174;6.368;2023-08-01T08:00:19;17.40;99.90
51839;DHT22;37886;53.174;6.368;2023-08-01T08:02:46;17.10;99.90
51839;DHT22;37886;53.174;6.368;2023-08-01T08:05:12;17.10;99.90
51839;DHT22;37886;53.174;6.368;2023-08-01T08:07:38;17.10;99.90
51839;DHT22;37886;53.174;6.368;2023-08-01T08:10:05;16.90;99.90
51839;DHT22;37886;53.174;6.368;2023-08-01T08:12:31;16.70;99.90
51839;DHT22;37886;53.174;6.368;2023-08-01T08:14:57;16.60;99.90
51839;DHT22;37886;53.174;6.368;2023-08-01T08:17:22;16.50;99.90
51839;DHT22;37886;53.174;6.368;2023-08-01T08:19:48;16.50;99.90
51839;DHT22;37886;53.174;6.368;2023-08-01T08:22:14;16.40;99.90
51839;DHT22;37886;53.174;6.368;2023-08-01T08:24:39;16.40;99.90
51839;DHT22;37886;53.174;6.368;2023-08-01T08:27:05;16.40;99.90
51839;DHT22;37886;53.174;6.368;2023-08-01T08:29:32;16.50;99.90
51839;DHT22;37886;53.174;6.368;2023-08-01T08:31:58;16.50;99.90
51839;DHT22;37886;53.174;6.368;2023-08-01T08:34:24;16.40;99.90
51839;DHT22;37886;53.174;6.368;2023-08-01T08:36:49;16.50;99.90
51839;DHT22;37886;53.174;6.368;2023-08-01T08:39:16;16.40;99.90
51839;DHT22;37886;53.174;6.368;2023-08-01T08:41:52;16.40;99.90
51839;DHT22;37886;53.174;6.368;2023-08-01T08:44:19;16.30;99.90
51839;DHT22;37886;53.174;6.368;2023-08-01T08:46:52;16.40;99.90
51839;DHT22;37886;53.174;6.368;2023-08-01T08:49:21;16.50;99.90
51839;DHT22;37886;53.174;6.368;2023-08-01T08:51:48;16.80;99.90
51839;DHT22;37886;53.174;6.368;2023-08-01T08:54:16;17.00;99.90
51839;DHT22;37886;53.174;6.368;2023-08-01T08:56:42;17.30;99.90
51839;DHT22;37886;53.174;6.368;2023-08-01T08:59:08;17.20;99.90
51839;DHT22;37886;53.174;6.368;2023-08-01T09:01:38;17.20;99.90
51839;DHT22;37886;53.174;6.368;2023-08-01T09:04:04;17.10;99.90
51839;DHT22;37886;53.174;6.368;2023-08-01T09:06:40;16.90;99.90
51839;DHT22;37886;53.174;6.368;2023-08-01T09:09:11;16.80;99.90
51839;DHT22;37886;53.174;6.368;2023-08-01T09:11:49;17.00;99.90
51839;DHT22;37886;53.174;6.368;2023-08-01T09:14:15;17.10;99.90
51839;DHT22;37886;53.174;6.368;2023-08-01T09:16:42;17.40;99.90
51839;DHT22;37886;53.174;6.368;2023-08-01T09:19:08;17.40;99.90
51839;DHT22;37886;53.174;6.368;2023-08-01T09:21:35;17.80;99.90
51839;DHT22;37886;53.174;6.368;2023-08-01T09:24:17;18.00;99.90
51839;DHT22;37886;53.174;6.368;2023-08-01T09:26:46;18.10;99.90
51839;DHT22;37886;53.174;6.368;2023-08-01T09:29:11;18.30;99.90
51839;DHT22;37886;53.174;6.368;2023-08-01T09:31:39;18.50;99.90
51839;DHT22;37886;53.174;6.368;2023-08-01T09:34:17;18.40;99.90
51839;DHT22;37886;53.174;6.368;2023-08-01T09:36:43;18.60;99.90
51839;DHT22;37886;53.174;6.368;2023-08-01T09:39:08;18.60;99.90
51839;DHT22;37886;53.174;6.368;2023-08-01T09:41:34;18.80;99.90
51839;DHT22;37886;53.174;6.368;2023-08-01T09:44:00;19.10;99.90
51839;DHT22;37886;53.174;6.368;2023-08-01T09:46:26;19.40;99.90
51839;DHT22;37886;53.174;6.368;2023-08-01T09:48:51;19.40;99.90
51839;DHT22;37886;53.174;6.368;2023-08-01T09:51:18;19.60;99.90
51839;DHT22;37886;53.174;6.368;2023-08-01T09:53:56;19.40;99.90
51839;DHT22;37886;53.174;6.368;2023-08-01T09:56:25;19.10;99.90
51839;DHT22;37886;53.174;6.368;2023-08-01T09:58:53;19.20;99.90
51839;DHT22;37886;53.174;6.368;2023-08-01T10:01:23;19.50;99.90
51839;DHT22;37886;53.174;6.368;2023-08-01T10:03:50;19.40;99.90
51839;DHT22;37886;53.174;6.368;2023-08-01T10:06:24;19.30;99.90
51839;DHT22;37886;53.174;6.368;2023-08-01T10:08:53;19.30;99.90
51839;DHT22;37886;53.174;6.368;2023-08-01T10:11:22;19.30;99.90
51839;DHT22;37886;53.174;6.368;2023-08-01T10:13:48;19.10;99.90
51839;DHT22;37886;53.174;6.368;2023-08-01T10:16:15;18.90;99.90
51839;DHT22;37886;53.174;6.368;2023-08-01T10:18:43;18.80;99.90
51839;DHT22;37886;53.174;6.368;2023-08-01T10:21:12;18.70;99.90
51839;DHT22;37886;53.174;6.368;2023-08-01T10:23:38;18.70;99.90
51839;DHT22;37886;53.174;6.368;2023-08-01T10:26:09;18.90;99.90
51839;DHT22;37886;53.174;6.368;2023-08-01T10:28:38;19.20;99.90
51839;DHT22;37886;53.174;6.368;2023-08-01T10:33:34;19.40;99.90
51839;DHT22;37886;53.174;6.368;2023-08-01T10:35:59;19.60;99.90
51839;DHT22;37886;53.174;6.368;2023-08-01T10:38:25;19.90;99.90
51839;DHT22;37886;53.174;6.368;2023-08-01T10:40:51;19.90;99.90
51839;DHT22;37886;53.174;6.368;2023-08-01T10:43:24;19.90;99.90
51839;DHT22;37886;53.174;6.368;2023-08-01T10:46:03;20.10;99.90
51839;DHT22;37886;53.174;6.368;2023-08-01T10:48:29;20.30;99.90
51839;DHT22;37886;53.174;6.368;2023-08-01T10:50:55;20.50;99.90
51839;DHT22;37886;53.174;6.368;2023-08-01T10:53:22;20.90;99.90
51839;DHT22;37886;53.174;6.368;2023-08-01T10:55:48;20.90;99.90
51839;DHT22;37886;53.174;6.368;2023-08-01T10:58:14;20.70;99.90
51839;DHT22;37886;53.174;6.368;2023-08-01T11:00:42;20.90;99.90
51839;DHT22;37886;53.174;6.368;2023-08-01T11:03:07;20.60;99.90
51839;DHT22;37886;53.174;6.368;2023-08-01T11:05:33;20.50;99.90
51839;DHT22;37886;53.174;6.368;2023-08-01T11:08:01;20.80;99.90
51839;DHT22;37886;53.174;6.368;2023-08-01T11:10:31;21.10;99.90
51839;DHT22;37886;53.174;6.368;2023-08-01T11:12:58;21.40;99.90
51839;DHT22;37886;53.174;6.368;2023-08-01T11:15:24;21.70;99.90
51839;DHT22;37886;53.174;6.368;2023-08-01T11:17:54;21.20;99.90
51839;DHT22;37886;53.174;6.368;2023-08-01T11:20:24;20.70;99.90
51839;DHT22;37886;53.174;6.368;2023-08-01T11:22:54;20.40;99.90
51839;DHT22;37886;53.174;6.368;2023-08-01T11:25:51;20.20;99.90
51839;DHT22;37886;53.174;6.368;2023-08-01T11:28:17;20.70;99.90
51839;DHT22;37886;53.174;6.368;2023-08-01T11:30:43;21.10;99.90
51839;DHT22;37886;53.174;6.368;2023-08-01T11:33:18;21.00;99.90
51839;DHT22;37886;53.174;6.368;2023-08-01T11:35:49;21.10;99.90
51839;DHT22;37886;53.174;6.368;2023-08-01T11:38:15;20.50;99.90
51839;DHT22;37886;53.174;6.368;2023-08-01T11:40:42;20.30;99.90
51839;DHT22;37886;53.174;6.368;2023-08-01T11:43:08;20.10;99.90
51839;DHT22;37886;53.174;6.368;2023-08-01T11:45:33;20.10;99.90
51839;DHT22;37886;53.174;6.368;2023-08-01T11:47:59;20.20;99.90
51839;DHT22;37886;53.174;6.368;2023-08-01T11:50:25;20.20;99.90
51839;DHT22;37886;53.174;6.368;2023-08-01T11:52:52;20.40;99.90
51839;DHT22;37886;53.174;6.368;2023-08-01T11:55:27;20.70;99.90
51839;DHT22;37886;53.174;6.368;2023-08-01T11:57:57;20.80;99.90
51839;DHT22;37886;53.174;6.368;2023-08-01T12:00:28;21.50;99.90
51839;DHT22;37886;53.174;6.368;2023-08-01T12:03:03;21.20;99.90
51839;DHT22;37886;53.174;6.368;2023-08-01T12:05:30;20.60;99.90
51839;DHT22;37886;53.174;6.368;2023-08-01T12:07:56;20.00;99.90
51839;DHT22;37886;53.174;6.368;2023-08-01T12:10:22;19.50;99.90
51839;DHT22;37886;53.174;6.368;2023-08-01T12:12:48;19.50;99.90
51839;DHT22;37886;53.174;6.368;2023-08-01T12:15:14;19.70;99.90
51839;DHT22;37886;53.174;6.368;2023-08-01T12:17:41;20.60;99.90
51839;DHT22;37886;53.174;6.368;2023-08-01T12:20:07;21.50;99.90
51839;DHT22;37886;53.174;6.368;2023-08-01T12:22:33;21.90;99.90
51839;DHT22;37886;53.174;6.368;2023-08-01T12:24:59;22.50;99.90
51839;DHT22;37886;53.174;6.368;2023-08-01T12:27:24;23.10;99.90
51839;DHT22;37886;53.174;6.368;2023-08-01T12:29:50;23.30;99.90
51839;DHT22;37886;53.174;6.368;2023-08-01T12:32:16;22.80;99.90
51839;DHT22;37886;53.174;6.368;2023-08-01T12:34:42;22.30;99.90
51839;DHT22;37886;53.174;6.368;2023-08-01T12:37:07;21.90;99.90
51839;DHT22;37886;53.174;6.368;2023-08-01T12:39:33;21.60;99.90
51839;DHT22;37886;53.174;6.368;2023-08-01T12:41:58;21.70;99.90
51839;DHT22;37886;53.174;6.368;2023-08-01T12:44:24;21.30;99.90
51839;DHT22;37886;53.174;6.368;2023-08-01T12:46:50;20.60;99.90
51839;DHT22;37886;53.174;6.368;2023-08-01T12:49:17;21.60;99.90
51839;DHT22;37886;53.174;6.368;2023-08-01T12:51:43;22.10;99.90
51839;DHT22;37886;53.174;6.368;2023-08-01T12:54:08;22.10;99.90
51839;DHT22;37886;53.174;6.368;2023-08-01T12:56:34;21.40;99.90
51839;DHT22;37886;53.174;6.368;2023-08-01T12:59:00;20.70;99.90
51839;DHT22;37886;53.174;6.368;2023-08-01T13:01:26;20.70;99.90
51839;DHT22;37886;53.174;6.368;2023-08-01T13:03:51;20.70;99.90
51839;DHT22;37886;53.174;6.368;2023-08-01T13:06:17;20.90;99.90
51839;DHT22;37886;53.174;6.368;2023-08-01T13:08:43;20.50;99.90
51839;DHT22;37886;53.174;6.368;2023-08-01T13:11:13;20.30;99.90
51839;DHT22;37886;53.174;6.368;2023-08-01T13:13:40;20.00;99.90
51839;DHT22;37886;53.174;6.368;2023-08-01T13:16:06;19.80;99.90
51839;DHT22;37886;53.174;6.368;2023-08-01T13:18:32;20.00;99.90
51839;DHT22;37886;53.174;6.368;2023-08-01T13:20:58;20.60;99.90
51839;DHT22;37886;53.174;6.368;2023-08-01T13:23:25;21.40;99.90
51839;DHT22;37886;53.174;6.368;2023-08-01T13:25:51;21.40;99.90
51839;DHT22;37886;53.174;6.368;2023-08-01T13:28:17;21.10;99.90
51839;DHT22;37886;53.174;6.368;2023-08-01T13:30:42;21.40;99.90
51839;DHT22;37886;53.174;6.368;2023-08-01T13:33:08;21.70;99.90
51839;DHT22;37886;53.174;6.368;2023-08-01T13:35:34;21.20;99.90
51839;DHT22;37886;53.174;6.368;2023-08-01T13:38:00;21.20;99.90
51839;DHT22;37886;53.174;6.368;2023-08-01T13:40:26;21.30;99.90
51839;DHT22;37886;53.174;6.368;2023-08-01T13:42:51;21.90;99.90
51839;DHT22;37886;53.174;6.368;2023-08-01T13:45:17;22.00;99.90
51839;DHT22;37886;53.174;6.368;2023-08-01T13:47:43;21.30;99.90
51839;DHT22;37886;53.174;6.368;2023-08-01T13:50:08;20.50;99.90
51839;DHT22;37886;53.174;6.368;2023-08-01T13:52:37;20.00;99.90
51839;DHT22;37886;53.174;6.368;2023-08-01T13:55:03;19.50;99.90
51839;DHT22;37886;53.174;6.368;2023-08-01T13:57:30;19.30;99.90
51839;DHT22;37886;53.174;6.368;2023-08-01T13:59:56;19.20;99.90
51839;DHT22;37886;53.174;6.368;2023-08-01T14:02:22;19.70;99.90
51839;DHT22;37886;53.174;6.368;2023-08-01T14:04:51;20.50;99.90
51839;DHT22;37886;53.174;6.368;2023-08-01T14:07:18;20.90;99.90
51839;DHT22;37886;53.174;6.368;2023-08-01T14:09:43;20.60;99.90
51839;DHT22;37886;53.174;6.368;2023-08-01T14:12:09;20.30;99.90
51839;DHT22;37886;53.174;6.368;2023-08-01T14:14:35;19.70;99.90
51839;DHT22;37886;53.174;6.368;2023-08-01T14:17:00;19.30;99.90
51839;DHT22;37886;53.174;6.368;2023-08-01T14:19:26;19.10;99.90
51839;DHT22;37886;53.174;6.368;2023-08-01T14:21:56;19.30;99.90
51839;DHT22;37886;53.174;6.368;2023-08-01T14:24:22;19.60;99.90
51839;DHT22;37886;53.174;6.368;2023-08-01T14:26:48;19.70;99.90
51839;DHT22;37886;53.174;6.368;2023-08-01T14:29:14;19.50;99.90
51839;DHT22;37886;53.174;6.368;2023-08-01T14:31:39;19.20;99.90
51839;DHT22;37886;53.174;6.368;2023-08-01T14:34:05;19.00;99.90
51839;DHT22;37886;53.174;6.368;2023-08-01T14:36:31;18.70;99.90
51839;DHT22;37886;53.174;6.368;2023-08-01T14:38:56;18.70;99.90
51839;DHT22;37886;53.174;6.368;2023-08-01T14:41:23;19.30;99.90
51839;DHT22;37886;53.174;6.368;2023-08-01T14:43:48;19.80;99.90
51839;DHT22;37886;53.174;6.368;2023-08-01T14:46:14;20.20;99.90
51839;DHT22;37886;53.174;6.368;2023-08-01T14:48:39;20.40;99.90
51839;DHT22;37886;53.174;6.368;2023-08-01T14:51:06;21.20;99.90
51839;DHT22;37886;53.174;6.368;2023-08-01T14:53:33;21.10;99.90
51839;DHT22;37886;53.174;6.368;2023-08-01T14:55:58;20.20;99.90
51839;DHT22;37886;53.174;6.368;2023-08-01T14:58:25;20.00;99.90
51839;DHT22;37886;53.174;6.368;2023-08-01T15:00:51;19.70;99.90
51839;DHT22;37886;53.174;6.368;2023-08-01T15:03:17;19.80;99.90
51839;DHT22;37886;53.174;6.368;2023-08-01T15:05:44;20.00;99.90
51839;DHT22;37886;53.174;6.368;2023-08-01T15:08:09;19.80;99.90
51839;DHT22;37886;53.174;6.368;2023-08-01T15:10:37;19.80;99.90
51839;DHT22;37886;53.174;6.368;2023-08-01T15:13:02;19.90;99.90
51839;DHT22;37886;53.174;6.368;2023-08-01T15:15:28;21.00;99.90
51839;DHT22;37886;53.174;6.368;2023-08-01T15:17:54;21.00;99.90
51839;DHT22;37886;53.174;6.368;2023-08-01T15:20:19;20.40;99.90
51839;DHT22;37886;53.174;6.368;2023-08-01T15:22:45;20.00;99.90
51839;DHT22;37886;53.174;6.368;2023-08-01T15:25:11;20.40;99.90
51839;DHT22;37886;53.174;6.368;2023-08-01T15:27:36;21.20;99.90